Terminal Aerodrome Forecast
Issued by NWS

Home | Current Version | Previous Version | Text Only | Print | Product List | Glossary On
Versions: 1 2 3 4 5 6 7 8 9 10 11 12 13 14 15 16 17
690
FTUS43 KAPX 261126
TAFMBL
TAF
KMBL 261126Z 2612/2712 00000KT 1/4SM FG OVC001
     FM261330 00000KT 2SM BR BKN003
     FM261500 VRB03KT P6SM BKN045
     FM261800 30007KT P6SM BKN110
     FM270200 VRB03KT P6SM BKN110
     FM270600 00000KT P6SM SCT070=

USA.gov is the U.S. government's official web portal to all federal, state and local government web resources and services.